Homer, North Dakota
Current Conditions -  °F | °C
As of 3:56 PM on Saturday 27 Dec 2014 (Local Time) from KJMS Reporting Station
Overcast Overcast  
Wind Chill: 16°   Ceiling: 7000
Heat Index: 24°   Visibility: 10mi
Dew Point: 18°   Wind: 7mph
Humidity: 77%   Direction: 220°SW
Pressure: 29.97"   Gusts: NA
Location:  46.8494°N, 98.7424°W
Report Text: KJMS 272156Z AUTO 22006KT 10SM OVC070 M04/M08 A2997 RMK AO2 SLP182 T10441078
Loading
Personal Weather Stations






























Interactive Weather Map New forecast layout! Learn more

10-Day Weather Forecast

Advertisements
Track Severe Weather on mobile